createdAt,value
2018-03-03T00:01:14.206Z,13.57
2018-03-03T00:03:43.179Z,12.40
2018-03-03T00:06:10.658Z,13.80
2018-03-03T00:08:38.088Z,8.50
2018-03-03T00:11:05.542Z,13.10
2018-03-03T00:13:32.998Z,9.57
2018-03-03T00:16:00.463Z,12.87
2018-03-03T00:18:27.927Z,14.20
2018-03-03T00:20:55.411Z,19.03
2018-03-03T00:23:22.870Z,13.70
2018-03-03T00:25:50.325Z,11.70
2018-03-03T00:28:17.788Z,10.57
2018-03-03T00:30:45.234Z,9.60
2018-03-03T00:33:12.717Z,17.67
2018-03-03T00:35:40.179Z,14.67
2018-03-03T00:38:07.651Z,15.23
2018-03-03T00:40:35.126Z,13.43
2018-03-03T00:43:03.366Z,15.87
2018-03-03T00:45:30.829Z,14.97
2018-03-03T00:47:58.301Z,12.30
2018-03-03T00:50:25.873Z,12.83
2018-03-03T00:52:53.340Z,12.30
2018-03-03T00:55:22.306Z,13.43
2018-03-03T00:57:49.760Z,14.13
2018-03-03T01:00:17.222Z,15.00
2018-03-03T01:02:44.683Z,12.90
2018-03-03T01:05:12.160Z,13.00
2018-03-03T01:07:44.912Z,16.97
2018-03-03T01:10:12.370Z,15.10
2018-03-03T01:12:39.831Z,14.00
2018-03-03T01:15:07.310Z,10.47
2018-03-03T01:17:34.759Z,18.20
2018-03-03T01:20:02.441Z,13.80
2018-03-03T01:22:29.904Z,13.40
2018-03-03T01:24:57.342Z,14.67
2018-03-03T01:27:24.806Z,11.40
2018-03-03T01:29:52.262Z,12.20
2018-03-03T01:32:19.750Z,15.77
2018-03-03T01:34:47.216Z,16.40
2018-03-03T01:37:14.664Z,11.27
2018-03-03T01:39:42.117Z,12.40
2018-03-03T01:42:09.574Z,12.83
2018-03-03T01:44:37.034Z,11.60
2018-03-03T01:47:04.484Z,10.20
2018-03-03T01:49:31.937Z,11.70
2018-03-03T01:51:59.413Z,11.37
2018-03-03T01:54:26.878Z,14.23
2018-03-03T01:56:54.341Z,12.83
2018-03-03T01:59:21.786Z,11.30
2018-03-03T02:01:50.012Z,9.50
2018-03-03T02:04:17.477Z,11.07
2018-03-03T02:06:44.934Z,13.17
2018-03-03T02:09:12.395Z,14.80
2018-03-03T02:11:39.861Z,12.40
2018-03-03T02:14:07.329Z,10.30
2018-03-03T02:16:35.757Z,11.90
2018-03-03T02:19:03.216Z,13.87
2018-03-03T02:21:31.450Z,13.30
2018-03-03T02:23:58.902Z,11.57
2018-03-03T02:26:26.362Z,12.93
2018-03-03T02:28:53.808Z,14.33
2018-03-03T02:31:21.291Z,16.40
2018-03-03T02:33:48.736Z,14.03
2018-03-03T02:36:16.180Z,12.67
2018-03-03T02:38:43.652Z,9.93
2018-03-03T02:41:11.124Z,10.57
2018-03-03T02:43:38.606Z,10.20
2018-03-03T02:46:06.142Z,11.07
2018-03-03T02:48:33.602Z,13.53
2018-03-03T02:51:01.070Z,11.43
2018-03-03T02:53:28.523Z,18.27
2018-03-03T02:55:55.999Z,12.13
2018-03-03T02:58:23.455Z,10.87
2018-03-03T03:00:51.232Z,14.20
2018-03-03T03:03:18.699Z,14.40
2018-03-03T03:05:46.166Z,11.47
2018-03-03T03:08:13.613Z,11.10
2018-03-03T03:10:41.100Z,13.87
2018-03-03T03:13:08.790Z,12.87
2018-03-03T03:15:37.014Z,13.67
2018-03-03T03:18:04.464Z,16.73
2018-03-03T03:20:31.925Z,14.00
2018-03-03T03:22:59.361Z,13.30
2018-03-03T03:25:26.995Z,11.90
2018-03-03T03:27:54.449Z,13.03
2018-03-03T03:30:21.909Z,12.77
2018-03-03T03:32:49.396Z,11.83
2018-03-03T03:35:16.855Z,13.77
2018-03-03T03:37:44.325Z,13.20
2018-03-03T03:40:11.777Z,14.47
2018-03-03T03:42:39.506Z,12.20
2018-03-03T03:45:07.169Z,15.47
2018-03-03T03:47:34.745Z,12.30
2018-03-03T03:50:02.219Z,14.77
2018-03-03T03:52:29.669Z,14.47
2018-03-03T03:54:57.133Z,14.37
2018-03-03T03:57:24.598Z,8.37
2018-03-03T03:59:52.069Z,15.23
2018-03-03T04:02:19.522Z,19.20
2018-03-03T04:04:46.992Z,11.67
2018-03-03T04:07:14.457Z,15.60
2018-03-03T04:09:41.924Z,13.37
2018-03-03T04:12:09.411Z,12.80
2018-03-03T04:14:36.872Z,12.23
2018-03-03T04:17:04.773Z,17.47
2018-03-03T04:19:32.221Z,14.40
2018-03-03T04:21:59.668Z,11.17
2018-03-03T04:24:27.137Z,11.90
2018-03-03T04:26:54.586Z,14.43
2018-03-03T04:29:22.053Z,11.70
2018-03-03T04:31:49.531Z,10.33
2018-03-03T04:34:16.991Z,9.97
2018-03-03T04:36:44.464Z,10.90
2018-03-03T04:39:14.192Z,14.20
2018-03-03T04:41:41.668Z,13.33
2018-03-03T04:44:09.138Z,14.97
2018-03-03T04:46:43.920Z,12.93
2018-03-03T04:49:11.407Z,9.57
2018-03-03T04:51:38.821Z,9.63
2018-03-03T04:54:06.285Z,14.63
2018-03-03T04:56:33.760Z,17.23
2018-03-03T04:59:03.834Z,11.80
2018-03-03T05:01:47.103Z,15.30
2018-03-03T05:04:22.592Z,12.40
2018-03-03T05:06:50.034Z,15.67
2018-03-03T05:09:17.502Z,13.90
2018-03-03T05:11:44.974Z,11.90
2018-03-03T05:14:13.252Z,16.03
2018-03-03T05:16:47.460Z,12.83
2018-03-03T05:19:33.770Z,17.10
2018-03-03T05:22:07.591Z,13.90
2018-03-03T05:24:35.033Z,10.90
2018-03-03T05:27:04.941Z,14.20
2018-03-03T05:29:38.155Z,14.60
2018-03-03T05:32:11.326Z,9.73
2018-03-03T05:34:44.445Z,16.83
2018-03-03T05:37:26.777Z,10.63
2018-03-03T05:39:59.963Z,14.37
2018-03-03T05:42:44.198Z,12.80
2018-03-03T05:45:27.334Z,16.13
2018-03-03T05:48:00.486Z,8.33
2018-03-03T05:50:42.835Z,15.37
2018-03-03T05:53:16.009Z,11.43
2018-03-03T05:55:49.077Z,14.37
2018-03-03T05:58:17.961Z,13.60
2018-03-03T06:00:58.136Z,14.50
2018-03-03T06:03:27.044Z,13.67
2018-03-03T06:06:04.416Z,16.57
2018-03-03T06:08:32.515Z,16.00
2018-03-03T06:10:59.965Z,16.00
2018-03-03T06:13:27.430Z,16.00
2018-03-03T06:15:55.056Z,14.13
2018-03-03T06:18:22.901Z,13.07
2018-03-03T06:20:50.346Z,17.60
2018-03-03T06:23:17.807Z,13.13
2018-03-03T06:25:45.274Z,15.40
2018-03-03T06:28:12.721Z,11.93
2018-03-03T06:30:40.188Z,15.40
2018-03-03T06:33:07.637Z,13.37
2018-03-03T06:35:35.088Z,11.93
2018-03-03T06:38:02.625Z,20.97
2018-03-03T06:40:30.071Z,21.27
2018-03-03T06:42:57.541Z,13.37
2018-03-03T06:45:24.993Z,16.73
2018-03-03T06:47:52.446Z,20.23
2018-03-03T06:50:19.913Z,15.40
2018-03-03T06:52:47.474Z,12.30
2018-03-03T06:55:14.954Z,13.70
2018-03-03T06:57:42.457Z,17.07
2018-03-03T07:00:10.076Z,15.53
2018-03-03T07:02:37.517Z,14.77
2018-03-03T07:05:04.978Z,22.80
2018-03-03T07:07:32.439Z,13.97
2018-03-03T07:09:59.899Z,20.97
2018-03-03T07:12:27.383Z,17.60
2018-03-03T07:17:59.449Z,13.23
2018-03-03T07:20:26.892Z,15.60
2018-03-03T07:22:54.342Z,16.40
2018-03-03T07:25:21.803Z,13.27
2018-03-03T07:27:49.261Z,14.53
2018-03-03T07:30:16.730Z,14.70
2018-03-03T07:32:44.186Z,14.70
2018-03-03T07:35:11.633Z,15.70
2018-03-03T07:37:39.093Z,14.93
2018-03-03T07:40:06.541Z,13.80
2018-03-03T07:42:33.993Z,17.00
2018-03-03T07:45:01.458Z,12.60
2018-03-03T07:47:29.692Z,12.97
2018-03-03T07:49:57.146Z,15.57
2018-03-03T07:52:24.607Z,14.70
2018-03-03T07:54:52.062Z,17.43
2018-03-03T07:57:19.507Z,15.13
2018-03-03T07:59:46.965Z,16.00
2018-03-03T08:02:14.402Z,18.63
2018-03-03T08:04:42.629Z,16.60
2018-03-03T08:07:10.077Z,17.50
2018-03-03T08:09:37.538Z,14.07
2018-03-03T08:12:05.023Z,17.00
2018-03-03T08:14:32.473Z,16.20
2018-03-03T08:17:00.397Z,17.17
2018-03-03T08:19:27.850Z,17.57
2018-03-03T08:21:55.299Z,10.87
2018-03-03T08:24:22.779Z,15.43
2018-03-03T08:26:50.221Z,16.67
2018-03-03T08:29:17.688Z,18.13
2018-03-03T08:31:46.564Z,15.57
2018-03-03T08:34:14.009Z,17.40
2018-03-03T08:36:41.460Z,17.80
2018-03-03T08:39:08.905Z,16.87
2018-03-03T08:41:36.383Z,18.00
2018-03-03T08:44:03.825Z,18.57
2018-03-03T08:46:31.294Z,16.30
2018-03-03T08:48:58.737Z,15.53
2018-03-03T08:51:26.263Z,28.20
2018-03-03T08:53:53.693Z,18.50
2018-03-03T08:56:21.164Z,17.90
2018-03-03T08:58:48.621Z,23.17
2018-03-03T09:01:16.087Z,13.90
2018-03-03T09:03:43.549Z,16.53
2018-03-03T09:06:11.176Z,17.97
2018-03-03T09:08:38.632Z,16.13
2018-03-03T09:11:06.101Z,18.17
2018-03-03T09:13:33.566Z,21.57
2018-03-03T09:16:01.020Z,21.33
2018-03-03T09:18:28.469Z,16.57
2018-03-03T09:20:56.702Z,17.40
2018-03-03T09:23:24.169Z,18.37
2018-03-03T09:28:24.309Z,16.30
2018-03-03T09:30:51.762Z,19.87
2018-03-03T09:33:19.222Z,17.67
2018-03-03T09:35:46.667Z,17.30
2018-03-03T09:38:14.113Z,20.90
2018-03-03T09:40:41.561Z,16.60
2018-03-03T09:43:09.149Z,17.80
2018-03-03T09:45:36.622Z,20.60
2018-03-03T09:48:04.070Z,16.57
2018-03-03T09:50:31.529Z,18.80
2018-03-03T09:52:59.008Z,19.10
2018-03-03T09:55:26.437Z,22.77
2018-03-03T09:57:53.893Z,19.47
2018-03-03T10:00:21.368Z,19.03
2018-03-03T10:02:48.847Z,33.45
2018-03-03T10:05:16.294Z,21.50
2018-03-03T10:07:43.763Z,20.90
2018-03-03T10:10:11.286Z,17.07
2018-03-03T10:12:38.740Z,19.90
2018-03-03T10:15:06.255Z,19.47
2018-03-03T10:17:33.674Z,20.30
2018-03-03T10:20:01.127Z,17.83
2018-03-03T10:22:28.576Z,20.20
2018-03-03T10:24:56.021Z,19.87
2018-03-03T10:27:23.472Z,16.90
2018-03-03T10:29:50.917Z,20.00
2018-03-03T10:32:18.376Z,19.87
2018-03-03T10:34:45.825Z,21.00
2018-03-03T10:37:13.269Z,20.90
2018-03-03T10:39:41.495Z,20.50
2018-03-03T10:42:08.955Z,17.23
2018-03-03T10:44:36.394Z,29.12
2018-03-03T10:47:03.856Z,23.00
2018-03-03T10:49:31.318Z,21.00
2018-03-03T10:51:58.788Z,20.17
2018-03-03T10:54:26.220Z,19.57
2018-03-03T10:56:53.768Z,17.50
2018-03-03T10:59:22.001Z,19.80
2018-03-03T11:01:49.484Z,17.70
2018-03-03T11:04:16.942Z,13.90
2018-03-03T11:06:44.405Z,19.70
2018-03-03T11:09:11.857Z,17.23
2018-03-03T11:11:39.321Z,22.07
2018-03-03T11:14:06.789Z,19.70
2018-03-03T11:16:34.234Z,36.95
2018-03-03T11:19:01.705Z,27.07
2018-03-03T11:21:29.172Z,19.90
2018-03-03T11:23:56.615Z,24.23
2018-03-03T11:26:24.076Z,19.80
2018-03-03T11:28:51.531Z,22.50
2018-03-03T11:31:19.018Z,22.00
2018-03-03T11:33:46.454Z,20.30
2018-03-03T11:36:13.896Z,22.30
2018-03-03T11:38:41.348Z,23.13
2018-03-03T11:41:08.804Z,17.67
2018-03-03T11:43:37.034Z,28.60
2018-03-03T11:46:04.478Z,18.37
2018-03-03T11:48:31.945Z,22.50
2018-03-03T11:50:59.401Z,22.83
2018-03-03T11:53:26.861Z,25.33
2018-03-03T11:55:54.317Z,23.63
2018-03-03T11:58:21.790Z,22.50
2018-03-03T12:00:49.574Z,39.77
2018-03-03T12:03:17.042Z,37.00
2018-03-03T12:05:44.790Z,20.37
2018-03-03T12:08:12.250Z,21.20
2018-03-03T12:10:40.145Z,20.67
2018-03-03T12:13:09.129Z,20.63
2018-03-03T12:15:36.582Z,17.17
2018-03-03T12:18:04.042Z,20.40
2018-03-03T12:20:31.482Z,16.70
2018-03-03T12:22:58.926Z,19.60
2018-03-03T12:25:26.378Z,18.43
2018-03-03T12:27:53.842Z,17.63
2018-03-03T12:30:21.301Z,17.80
2018-03-03T12:32:48.749Z,18.80
2018-03-03T12:35:16.221Z,17.67
2018-03-03T12:37:43.662Z,18.27
2018-03-03T12:40:11.128Z,16.13
2018-03-03T12:42:38.586Z,15.47
2018-03-03T12:45:13.980Z,20.00
2018-03-03T12:47:41.457Z,17.97
2018-03-03T12:50:08.914Z,17.90
2018-03-03T12:52:36.392Z,17.63
2018-03-03T12:55:03.850Z,18.00
2018-03-03T12:57:34.130Z,18.80
2018-03-03T13:00:01.598Z,17.77
2018-03-03T13:02:29.055Z,17.90
2018-03-03T13:04:57.098Z,19.40
2018-03-03T13:07:24.549Z,18.93
2018-03-03T13:09:54.561Z,20.63
2018-03-03T13:12:22.054Z,42.53
2018-03-03T13:14:49.490Z,32.65
2018-03-03T13:17:16.958Z,20.63
2018-03-03T13:19:44.410Z,41.90
2018-03-03T13:22:11.890Z,33.87
2018-03-03T13:24:39.341Z,37.70
2018-03-03T13:27:08.605Z,27.27
2018-03-03T13:29:36.078Z,32.23
2018-03-03T13:32:03.527Z,34.77
2018-03-03T13:34:31.740Z,16.83
2018-03-03T13:36:59.198Z,27.20
2018-03-03T13:39:26.658Z,34.00
2018-03-03T13:41:54.107Z,23.33
2018-03-03T13:44:21.567Z,18.57
2018-03-03T13:46:49.020Z,20.50
2018-03-03T13:49:16.645Z,21.03
2018-03-03T13:51:44.116Z,24.13
2018-03-03T13:54:11.553Z,19.70
2018-03-03T13:56:39.021Z,27.03
2018-03-03T13:59:06.473Z,36.17
2018-03-03T14:01:33.931Z,28.60
2018-03-03T14:04:01.386Z,37.40
2018-03-03T14:06:28.880Z,27.60
2018-03-03T14:08:56.288Z,17.77
2018-03-03T14:11:23.743Z,32.90
2018-03-03T14:13:51.196Z,16.87
2018-03-03T14:16:18.641Z,25.40
2018-03-03T14:18:46.078Z,29.63
2018-03-03T14:21:13.550Z,22.43
2018-03-03T14:23:41.010Z,24.60
2018-03-03T14:26:08.457Z,22.63
2018-03-03T14:28:35.913Z,25.03
2018-03-03T14:31:03.380Z,18.83
2018-03-03T14:33:30.824Z,22.00
2018-03-03T14:35:58.299Z,26.30
2018-03-03T14:38:25.737Z,27.30
2018-03-03T14:40:53.178Z,19.53
2018-03-03T14:43:20.648Z,21.97
2018-03-03T14:45:48.189Z,17.87
2018-03-03T14:48:15.658Z,19.17
2018-03-03T14:50:43.096Z,21.90
2018-03-03T14:53:11.313Z,22.37
2018-03-03T14:58:36.800Z,16.23
2018-03-03T15:01:04.251Z,18.33
2018-03-03T15:03:31.715Z,18.47
2018-03-03T15:05:59.173Z,24.70
2018-03-03T15:08:26.618Z,22.53
2018-03-03T15:10:54.090Z,20.47
2018-03-03T15:13:21.535Z,23.70
2018-03-03T15:15:48.992Z,16.53
2018-03-03T15:18:16.433Z,19.90
2018-03-03T15:20:44.033Z,20.97
2018-03-03T15:23:11.515Z,19.53
2018-03-03T15:25:38.954Z,19.53
2018-03-03T15:28:06.393Z,20.27
2018-03-03T15:30:33.857Z,21.77
2018-03-03T15:33:01.317Z,17.80
2018-03-03T15:35:28.752Z,19.40
2018-03-03T15:37:56.200Z,18.60
2018-03-03T15:40:23.653Z,18.13
2018-03-03T15:42:51.118Z,18.57
2018-03-03T15:45:18.581Z,21.20
2018-03-03T15:47:46.034Z,22.77
2018-03-03T15:50:13.484Z,17.70
2018-03-03T15:52:40.927Z,18.93
2018-03-03T15:55:08.396Z,16.50
2018-03-03T15:57:35.852Z,14.67
2018-03-03T16:00:03.290Z,16.90
2018-03-03T16:02:30.745Z,16.77
2018-03-03T16:04:58.194Z,16.37
2018-03-03T16:07:25.629Z,16.97
2018-03-03T16:09:53.123Z,18.80
2018-03-03T16:12:20.587Z,15.57
2018-03-03T16:14:48.027Z,21.83
2018-03-03T16:17:16.279Z,32.67
2018-03-03T16:19:43.746Z,17.63
2018-03-03T16:22:11.213Z,31.57
2018-03-03T16:24:38.657Z,37.57
2018-03-03T16:27:06.108Z,28.33
2018-03-03T16:29:33.568Z,41.67
2018-03-03T16:32:01.009Z,31.90
2018-03-03T16:34:28.478Z,20.83
2018-03-03T16:36:55.935Z,25.87
2018-03-03T16:39:23.396Z,27.87
2018-03-03T16:41:56.386Z,22.93
2018-03-03T16:44:23.838Z,17.67
2018-03-03T16:46:51.366Z,25.17
2018-03-03T16:49:18.786Z,36.13
2018-03-03T16:51:46.231Z,32.50
2018-03-03T16:54:15.043Z,59.47
2018-03-03T16:56:42.563Z,25.07
2018-03-03T16:59:10.012Z,23.77
2018-03-03T17:01:39.630Z,24.33
2018-03-03T17:04:07.073Z,25.77
2018-03-03T17:06:34.532Z,21.20
2018-03-03T17:09:02.782Z,23.10
2018-03-03T17:11:30.247Z,25.67
2018-03-03T17:13:57.730Z,24.43
2018-03-03T17:16:25.166Z,20.80
2018-03-03T17:18:52.631Z,36.77
2018-03-03T17:21:20.152Z,19.90
2018-03-03T17:23:47.637Z,20.80
2018-03-03T17:26:15.070Z,21.33
2018-03-03T17:28:42.533Z,40.13
2018-03-03T17:31:10.118Z,28.12
2018-03-03T17:33:37.562Z,27.30
2018-03-03T17:36:05.017Z,24.23
2018-03-03T17:38:32.479Z,24.92
2018-03-03T17:41:00.751Z,32.33
2018-03-03T17:43:28.202Z,17.50
2018-03-03T17:45:55.652Z,24.97
2018-03-03T17:48:23.133Z,18.07
2018-03-03T17:50:50.607Z,17.23
2018-03-03T17:53:18.096Z,21.20
2018-03-03T17:55:45.555Z,19.07
2018-03-03T17:58:12.997Z,18.43
2018-03-03T18:00:40.456Z,15.63
2018-03-03T18:03:07.901Z,28.27
2018-03-03T18:05:36.107Z,22.77
2018-03-03T18:08:03.561Z,21.90
2018-03-03T18:10:31.013Z,15.53
2018-03-03T18:12:58.479Z,22.73
2018-03-03T18:15:25.932Z,17.53
2018-03-03T18:17:55.761Z,14.30
2018-03-03T18:20:23.222Z,20.43
2018-03-03T18:22:50.666Z,14.57
2018-03-03T18:25:18.128Z,20.30
2018-03-03T18:27:45.569Z,15.73
2018-03-03T18:30:13.040Z,17.60
2018-03-03T18:32:40.508Z,12.67
2018-03-03T18:35:07.957Z,15.00
2018-03-03T18:37:35.415Z,19.83
2018-03-03T18:40:02.861Z,15.23
2018-03-03T18:42:30.319Z,19.30
2018-03-03T18:44:57.784Z,17.13
2018-03-03T18:47:25.338Z,16.97
2018-03-03T18:49:52.809Z,12.50
2018-03-03T18:52:20.271Z,16.53
2018-03-03T18:54:47.733Z,18.33
2018-03-03T18:57:15.209Z,23.50
2018-03-03T18:59:42.644Z,18.60
2018-03-03T19:02:10.112Z,19.47
2018-03-03T19:04:37.564Z,13.73
2018-03-03T19:07:05.011Z,16.70
2018-03-03T19:09:32.483Z,17.93
2018-03-03T19:11:59.922Z,14.57
2018-03-03T19:14:27.390Z,15.00
2018-03-03T19:16:54.833Z,16.37
2018-03-03T19:19:22.291Z,19.90
2018-03-03T19:21:49.761Z,13.63
2018-03-03T19:24:24.487Z,16.70
2018-03-03T19:26:53.781Z,18.07
2018-03-03T19:29:22.021Z,17.83
2018-03-03T19:31:49.476Z,16.70
2018-03-03T19:34:16.942Z,18.10
2018-03-03T19:39:20.305Z,16.40
2018-03-03T19:41:47.771Z,16.57
2018-03-03T19:44:15.215Z,20.60
2018-03-03T19:46:46.179Z,19.57
2018-03-03T19:49:15.166Z,20.13
2018-03-03T19:51:42.608Z,21.40
2018-03-03T19:54:10.063Z,17.50
2018-03-03T19:56:37.516Z,21.53
2018-03-03T19:59:04.988Z,16.47
2018-03-03T20:01:32.475Z,19.97
2018-03-03T20:03:59.927Z,15.63
2018-03-03T20:06:27.386Z,19.33
2018-03-03T20:08:54.848Z,17.50
2018-03-03T20:11:22.318Z,17.43
2018-03-03T20:13:49.785Z,15.70
2018-03-03T20:16:17.433Z,20.13
2018-03-03T20:18:44.898Z,18.53
2018-03-03T20:21:13.126Z,19.20
2018-03-03T20:23:40.594Z,18.17
2018-03-03T20:26:08.040Z,16.33
2018-03-03T20:28:35.506Z,16.20
2018-03-03T20:31:02.976Z,16.13
2018-03-03T20:33:30.416Z,17.80
2018-03-03T20:35:57.877Z,16.87
2018-03-03T20:38:25.322Z,18.00
2018-03-03T20:40:52.786Z,18.53
2018-03-03T20:43:20.240Z,18.57
2018-03-03T20:45:47.684Z,20.20
2018-03-03T20:48:15.917Z,19.17
2018-03-03T20:50:43.361Z,16.53
2018-03-03T20:53:10.855Z,19.50
2018-03-03T20:55:38.301Z,15.80
2018-03-03T20:58:05.779Z,18.97
2018-03-03T21:00:33.226Z,18.57
2018-03-03T21:03:01.125Z,15.80
2018-03-03T21:05:28.604Z,15.63
2018-03-03T21:07:56.049Z,16.53
2018-03-03T21:10:23.530Z,20.13
2018-03-03T21:12:50.985Z,20.73
2018-03-03T21:15:18.428Z,15.93
2018-03-03T21:17:45.897Z,17.37
2018-03-03T21:20:13.354Z,20.83
2018-03-03T21:22:40.830Z,15.50
2018-03-03T21:25:08.295Z,19.50
2018-03-03T21:27:35.736Z,18.23
2018-03-03T21:30:03.204Z,20.07
2018-03-03T21:32:30.667Z,19.53
2018-03-03T21:34:58.114Z,15.33
2018-03-03T21:37:25.587Z,17.90
2018-03-03T21:39:53.044Z,20.47
2018-03-03T21:42:20.513Z,18.60
2018-03-03T21:44:47.951Z,17.97
2018-03-03T21:47:15.408Z,18.20
2018-03-03T21:49:42.864Z,18.80
2018-03-03T21:52:10.318Z,17.40
2018-03-03T21:54:37.766Z,17.77
2018-03-03T21:57:05.200Z,15.50
2018-03-03T21:59:33.435Z,17.70
2018-03-03T22:02:00.897Z,18.23
2018-03-03T22:04:28.338Z,18.33
2018-03-03T22:06:55.809Z,22.97
2018-03-03T22:09:23.278Z,19.33
2018-03-03T22:11:50.738Z,18.80
2018-03-03T22:14:18.206Z,15.00
2018-03-03T22:16:46.528Z,20.07
2018-03-03T22:19:16.086Z,19.47
2018-03-03T22:21:43.546Z,17.27
2018-03-03T22:24:11.008Z,16.20
2018-03-03T22:26:38.478Z,18.33
2018-03-03T22:29:05.917Z,20.40
2018-03-03T22:31:33.387Z,17.17
2018-03-03T22:34:00.858Z,22.90
2018-03-03T22:36:28.296Z,16.80
2018-03-03T22:38:55.917Z,19.40
2018-03-03T22:41:23.378Z,17.10
2018-03-03T22:43:50.836Z,16.50
2018-03-03T22:46:18.321Z,19.87
2018-03-03T22:48:45.778Z,24.17
2018-03-03T22:51:13.237Z,21.77
2018-03-03T22:53:40.701Z,21.10
2018-03-03T22:56:08.154Z,16.27
2018-03-03T22:58:35.608Z,20.53
2018-03-03T23:01:03.064Z,19.00
2018-03-03T23:03:30.533Z,17.53
2018-03-03T23:05:58.023Z,17.33
2018-03-03T23:08:25.425Z,19.30
2018-03-03T23:10:52.882Z,15.23
2018-03-03T23:13:20.338Z,19.00
2018-03-03T23:15:47.816Z,20.27
2018-03-03T23:18:16.184Z,17.17
2018-03-03T23:20:43.641Z,17.73
2018-03-03T23:23:11.119Z,18.47
2018-03-03T23:25:38.557Z,20.33
2018-03-03T23:28:06.030Z,21.67
2018-03-03T23:30:33.478Z,17.37
2018-03-03T23:33:00.936Z,17.17
2018-03-03T23:35:28.392Z,18.30
2018-03-03T23:37:55.866Z,20.13
2018-03-03T23:40:23.334Z,17.50
2018-03-03T23:42:50.795Z,20.70
2018-03-03T23:45:18.251Z,19.67
2018-03-03T23:47:45.718Z,17.87
2018-03-03T23:50:13.154Z,20.23
2018-03-03T23:52:40.639Z,20.07
2018-03-03T23:55:08.084Z,18.87
2018-03-03T23:57:35.536Z,23.00
